INFORMACIÓN METAR y TAF
METAR FOR EGBB
ADDS - METARS form results

(2044 UTC 02 June 2020)
Data provider http://aviationweather.gov/metar/data/
 
METAR text: EGBB 022020Z 32009KT CAVOK 21/06 Q1015
Conditions at: EGBB (BIRMINGHAM AIRPO, GB) observed 2020 UTC 02 June 2020
Temperature: 21.0°C (70°F)
Dewpoint: 6.0°C (43°F) [RH = 38%]
Pressure (altimeter): 29.97 inches Hg (1015.0 mb)
Winds: from the NW (320 degrees) at 10 MPH (9 knots; 4.6 m/s)
Visibility: 6 or more miles (10+ km)
Ceiling: ceiling and visibility are OK
Clouds: unknown
Weather: no significant weather observed at this time

METAR text: EGBB 021950Z 32010KT CAVOK 22/05 Q1015
Conditions at: EGBB (BIRMINGHAM AIRPO, GB) observed 1950 UTC 02 June 2020
Temperature: 22.0°C (72°F)
Dewpoint: 5.0°C (41°F) [RH = 33%]
Pressure (altimeter): 29.97 inches Hg (1015.0 mb)
Winds: from the NW (320 degrees) at 12 MPH (10 knots; 5.1 m/s)
Visibility: 6 or more miles (10+ km)
Ceiling: ceiling and visibility are OK
Clouds: unknown
Weather: no significant weather observed at this time

Forecast for: EGBB (BIRMINGHAM AIRPO, GB)
Text: TAF EGBB 021654Z 0218/0318 32005KT 9999 FEW040
Forecast period: 1800 UTC 02 June 2020 to 0900 UTC 03 June 2020
Forecast type: FROM: standard forecast or significant change
Winds: from the NW (320 degrees) at 6 MPH (5 knots; 2.6 m/s)
Visibility: 6 or more miles 10+ km)
Ceiling: at least 12,000 feet AGL
Clouds: few clouds at 4000 feet AGL
Weather: no significant weather forecast for this period
Text: TEMPO 0301/0318 6000 RA BKN012
Forecast period: 0100 to 1800 UTC 03 June 2020
Forecast type: TEMPORARY: The following changes expected for less than half the time period
Visibility: 4 miles (6 km)
Ceiling: 1200 feet AGL
Clouds: broken clouds at 1200 feet AGL
Weather: RA  (moderate rain)
Text: PROB30
Forecast period: 0400 to 1500 UTC 03 June 2020
Forecast type: TEMPORARY: The following changes expected for less than half the time period
Visibility: 2.49 miles (4.01 km)
Ceiling: 700 feet AGL
Clouds: broken clouds at 700 feet AGL
Weather: +RA  (heavy rain)
Text: TEMPO 0304/0315 4000 +RA BKN007
Forecast period: 0900 to 1800 UTC 03 June 2020
Forecast type: BECOMING: Conditions expected to become as follows by 1200 UTC 03 June 2020
Winds: from the NNE (20 degrees) at 14 MPH (12 knots; 6.2 m/s)
Visibility: 6 or more miles 10+ km)
Ceiling: at least 12,000 feet AGL
Clouds: few clouds at 4000 feet AGL
Weather: no significant weather forecast for this period

MAPA DE AEROPUERTO

INFORMACIÓN DE PISTA
Pista 15 Longitud 8527 ft Ancho 151 ft
Elevación 305 ft Umbral desplazado 1069 ft Rumbo de pista 148
Pista 33 Longitud 8527 ft Ancho 151 ft
Elevación 328 ft Umbral desplazado 987 ft Rumbo de pista 328

FRECUANCIAS DEL AEROPUERTO
Tipo APP Nombre APP Frecuencia 118.05 MHZ
Tipo ATIS Nombre ATIS Frecuencia 136.02 MHZ
Tipo GND Nombre GND Frecuencia 121.8 MHZ
Tipo TWR Nombre TWR Frecuencia 118.3 MHZ

RADIO AYUDAS DEL AEROPUERTO
Tipo NDB Nombre Birmingham Frecuencia 406 KHZ